Rome, Georgia
Current Conditions -  °F | °C
As of 6:53 PM on Friday 31 Oct 2014 (Local Time) from KRMG Reporting Station
Light Rain Light Rain  
Wind Chill: 52°   Ceiling: 2700
Heat Index: 52°   Visibility: 10mi
Dew Point: 47°   Wind: 8mph
Humidity: 83%   Direction: 300°WNW
Pressure: 29.94"   Gusts: NA
Location:  34.25°N, 85.17°W
Report Text: KRMG 312253Z AUTO 30007KT 10SM -RA SCT021 BKN027 OVC037 11/08 A2994 RMK AO2 RAB39 SLP135 P0000 T01110083
Loading
Personal Weather Stations






























Interactive Weather Map New forecast layout! Learn more

10-Day Weather Forecast

Advertisements
Track Severe Weather on mobile